Time;durP1;ratioP1;P1;durP2;ratioP2;P2;SDS_P1;SDS_P2;PMS_P1;PMS_P2;Temp;Humidity;BMP_temperature;BMP_pressure;BME280_temperature;BME280_humidity;BME280_pressure;Samples;Min_cycle;Max_cycle;Signal;HPM_P1;HPM_P2
2022/03/21 00:01:45;;;;;;;;;;;;;;;16.95;41.71;102966.28;5126929;28;20545;-59
2022/03/21 00:04:10;;;;;;;;;;;;;;;16.94;41.68;102964.53;5127326;28;19914;-59
2022/03/21 00:06:35;;;;;;;;;;;;;;;16.92;41.66;102972.72;5127096;28;19958;-59
2022/03/21 00:09:01;;;;;;;;;;;;;;;16.92;41.59;102969.19;5126895;28;19911;-59
2022/03/21 00:11:26;;;;;;;;;;;;;;;16.91;41.69;102970.16;5125307;28;19931;-59
2022/03/21 00:13:53;;;;;;;;;;;;;;;16.92;41.65;102974.53;5126871;28;19908;-59
2022/03/21 00:16:18;;;;;;;;;;;;;;;16.91;41.74;102980.91;5126716;28;19914;-57
2022/03/21 00:18:43;;;;;;;;;;;;;;;16.90;41.66;102971.09;5127166;28;19929;-58
2022/03/21 00:21:09;;;;;;;;;;;;;;;16.89;41.67;102986.34;5126671;28;19967;-58
2022/03/21 00:23:35;;;;;;;;;;;;;;;16.87;41.61;102980.25;5126423;28;20368;-58
2022/03/21 00:26:00;;;;;;;;;;;;;;;16.87;41.71;102985.63;5126400;28;19911;-58
2022/03/21 00:28:25;;;;;;;;;;;;;;;16.86;41.63;102989.25;5126714;28;19922;-58
2022/03/21 00:30:51;;;;;;;;;;;;;;;16.86;41.50;102999.13;5126573;28;19954;-58
2022/03/21 00:33:17;;;;;;;;;;;;;;;16.85;41.72;102987.53;5126284;28;19908;-59
2022/03/21 00:35:42;;;;;;;;;;;;;;;16.84;41.64;102987.66;5126704;28;19919;-58
2022/03/21 00:38:11;;;;;;;;;;;;;;;16.82;41.61;102987.75;5126392;28;19907;-58
2022/03/21 00:40:36;;;;;;;;;;;;;;;16.82;41.54;102987.75;5126033;28;19915;-58
2022/03/21 00:43:01;;;;;;;;;;;;;;;16.83;41.65;102991.31;5125157;28;19915;-58
2022/03/21 00:45:27;;;;;;;;;;;;;;;16.80;41.48;102984.28;5126381;28;19908;-58
2022/03/21 00:47:53;;;;;;;;;;;;;;;16.81;41.61;102987.84;5125709;28;20340;-58
2022/03/21 00:50:19;;;;;;;;;;;;;;;16.79;41.48;102990.66;5124769;28;20372;-58
2022/03/21 00:52:48;;;;;;;;;;;;;;;16.79;41.49;102977.22;5126249;28;19914;-58
2022/03/21 00:55:14;;;;;;;;;;;;;;;16.78;41.60;102990.72;5125700;27;19942;-58
2022/03/21 00:57:42;;;;;;;;;;;;;;;16.77;41.56;102992.56;5126154;28;20391;-58
2022/03/21 01:00:12;;;;;;;;;;;;;;;16.76;41.48;102998.03;5125976;28;19908;-56
2022/03/21 01:02:37;;;;;;;;;;;;;;;16.75;41.42;102997.19;5125212;28;19915;-58
2022/03/21 01:05:03;;;;;;;;;;;;;;;16.74;41.56;103003.53;5126162;28;19911;-57
2022/03/21 01:07:28;;;;;;;;;;;;;;;16.73;41.52;103005.31;5126140;28;19987;-58
2022/03/21 01:09:53;;;;;;;;;;;;;;;16.72;41.55;103006.31;5125080;28;19925;-58
2022/03/21 01:12:19;;;;;;;;;;;;;;;16.71;41.50;103004.56;5125767;28;19916;-58
2022/03/21 01:14:44;;;;;;;;;;;;;;;16.72;41.60;103010.78;5125682;28;19986;-58
2022/03/21 01:17:09;;;;;;;;;;;;;;;16.69;41.44;103009.19;5125381;28;19912;-58
2022/03/21 01:19:34;;;;;;;;;;;;;;;16.69;41.49;103011.88;5125454;28;19972;-56
2022/03/21 01:21:59;;;;;;;;;;;;;;;16.69;41.37;103013.66;5125480;28;20387;-58
2022/03/21 01:24:25;;;;;;;;;;;;;;;16.68;41.39;103014.63;5125651;28;19929;-58
2022/03/21 01:26:50;;;;;;;;;;;;;;;16.68;41.52;103020.00;5125035;28;19916;-56
2022/03/21 01:29:15;;;;;;;;;;;;;;;16.65;41.38;103021.09;5124204;28;19908;-58
2022/03/21 01:31:40;;;;;;;;;;;;;;;16.66;41.47;103020.13;5125289;28;19963;-58
2022/03/21 01:34:06;;;;;;;;;;;;;;;16.65;41.49;103026.47;5124071;28;20433;-58
2022/03/21 01:36:31;;;;;;;;;;;;;;;16.65;41.36;103025.56;5125483;28;19908;-58
2022/03/21 01:38:56;;;;;;;;;;;;;;;16.64;41.40;103032.78;5125039;28;19908;-58
2022/03/21 01:41:21;;;;;;;;;;;;;;;16.63;41.44;103033.75;5124725;28;19919;-58
2022/03/21 01:43:58;;;;;;;;;;;;;;;16.62;41.36;103040.09;5124967;28;19911;-58
2022/03/21 01:46:24;;;;;;;;;;;;;;;16.62;41.34;103037.41;5124737;28;19923;-58
2022/03/21 01:48:49;;;;;;;;;;;;;;;16.61;41.38;103035.69;5125007;28;19912;-56
2022/03/21 01:51:14;;;;;;;;;;;;;;;16.61;41.37;103053.59;5125278;28;19914;-58
2022/03/21 01:56:23;;;;;;;;;;;;;;;16.59;41.43;103052.84;5124838;28;20456;-58
2022/03/21 01:58:49;;;;;;;;;;;;;;;16.58;41.29;103054.69;5123761;28;19975;-57
2022/03/21 02:01:14;;;;;;;;;;;;;;;16.58;41.39;103053.81;5123675;28;19915;-58
2022/03/21 02:03:39;;;;;;;;;;;;;;;16.58;41.39;103048.44;5124677;28;19919;-57
2022/03/21 02:06:04;;;;;;;;;;;;;;;16.55;41.41;103036.06;5124976;28;19914;-56
2022/03/21 02:08:29;;;;;;;;;;;;;;;16.55;41.46;103051.34;5124746;28;20377;-58
2022/03/21 02:10:54;;;;;;;;;;;;;;;16.55;41.27;103040.59;5124349;28;19914;-58
2022/03/21 02:13:20;;;;;;;;;;;;;;;16.53;41.43;103038.00;5124867;28;19930;-58
2022/03/21 02:15:45;;;;;;;;;;;;;;;16.54;41.27;103038.88;5123256;28;19937;-58
2022/03/21 02:18:10;;;;;;;;;;;;;;;16.52;41.17;103041.63;5124444;28;19907;-58
2022/03/21 02:20:35;;;;;;;;;;;;;;;16.52;41.20;103046.16;5123549;28;19935;-56
2022/03/21 02:23:07;;;;;;;;;;;;;;;16.50;41.29;103039.06;5124147;28;19998;-57
2022/03/21 02:25:33;;;;;;;;;;;;;;;16.50;41.30;103035.53;5125065;28;19979;-58
2022/03/21 02:27:59;;;;;;;;;;;;;;;16.49;41.29;103033.81;5124412;28;19912;-58
2022/03/21 02:30:25;;;;;;;;;;;;;;;16.50;41.29;103038.22;5123407;28;19914;-57
2022/03/21 02:32:50;;;;;;;;;;;;;;;16.48;41.15;103037.44;5122696;28;19912;-58
2022/03/21 02:35:15;;;;;;;;;;;;;;;16.47;41.25;103027.66;5123543;28;19960;-56
2022/03/21 02:37:40;;;;;;;;;;;;;;;16.48;41.17;103032.06;5123233;28;19908;-58
2022/03/21 02:40:08;;;;;;;;;;;;;;;16.46;41.03;103029.50;5122224;28;19907;-58
2022/03/21 02:42:33;;;;;;;;;;;;;;;16.46;41.10;103029.50;5124438;28;19908;-58
2022/03/21 02:44:59;;;;;;;;;;;;;;;16.45;41.12;103025.09;5124236;28;19915;-57
2022/03/21 02:47:24;;;;;;;;;;;;;;;16.45;41.20;103029.59;5105402;28;19962;-58
2022/03/21 02:49:49;;;;;;;;;;;;;;;16.44;41.05;103027.88;5124020;28;20443;-58
2022/03/21 02:52:14;;;;;;;;;;;;;;;16.43;41.06;103027.00;5106180;28;19918;-58
2022/03/21 02:54:39;;;;;;;;;;;;;;;16.41;41.13;103026.25;5123738;28;19998;-58
2022/03/21 02:57:05;;;;;;;;;;;;;;;16.41;40.89;103028.06;5124338;28;19907;-57
2022/03/21 02:59:30;;;;;;;;;;;;;;;16.40;40.92;103027.22;5124536;28;19907;-58
2022/03/21 03:01:55;;;;;;;;;;;;;;;16.40;40.95;103024.53;5123880;28;19990;-58
2022/03/21 03:04:21;;;;;;;;;;;;;;;16.40;41.10;103021.00;5124265;28;19907;-58
2022/03/21 03:06:46;;;;;;;;;;;;;;;16.39;41.00;103016.56;5124262;28;19912;-58
2022/03/21 03:09:11;;;;;;;;;;;;;;;16.38;41.01;103029.13;5123999;28;19908;-58
2022/03/21 03:11:37;;;;;;;;;;;;;;;16.37;41.09;103027.41;5123604;28;19914;-58
2022/03/21 03:14:02;;;;;;;;;;;;;;;16.37;41.02;103027.41;5124107;28;19956;-57
2022/03/21 03:16:28;;;;;;;;;;;;;;;16.36;40.97;103031.06;5123861;28;19990;-57
2022/03/21 03:18:53;;;;;;;;;;;;;;;16.36;41.01;103032.91;5122661;28;19919;-58
2022/03/21 03:21:19;;;;;;;;;;;;;;;16.36;40.94;103043.63;5122692;28;19911;-58
2022/03/21 03:23:44;;;;;;;;;;;;;;;16.34;40.99;103037.47;5122679;28;19958;-58
2022/03/21 03:26:09;;;;;;;;;;;;;;;16.33;41.05;103036.63;5122304;28;19911;-58
2022/03/21 03:28:34;;;;;;;;;;;;;;;16.32;40.90;103037.59;5122915;28;19916;-58
2022/03/21 03:31:00;;;;;;;;;;;;;;;16.32;41.00;103044.78;5123649;28;19937;-58
2022/03/21 03:33:25;;;;;;;;;;;;;;;16.31;40.95;103052.00;5126019;28;19914;-58
2022/03/21 03:35:50;;;;;;;;;;;;;;;16.31;40.98;103049.31;5127848;28;19929;-57
2022/03/21 03:38:16;;;;;;;;;;;;;;;16.31;41.04;103051.09;5127620;28;19908;-58
2022/03/21 03:40:43;;;;;;;;;;;;;;;16.30;40.99;103049.38;5127197;28;19915;-57
2022/03/21 03:43:08;;;;;;;;;;;;;;;16.29;40.98;103044.97;5127808;28;19915;-57
2022/03/21 03:45:33;;;;;;;;;;;;;;;16.29;40.85;103051.22;5127371;28;20002;-57
2022/03/21 03:47:58;;;;;;;;;;;;;;;16.29;40.93;103047.66;5127260;28;20019;-57
2022/03/21 03:50:23;;;;;;;;;;;;;;;16.28;40.86;103049.50;5126089;28;19911;-57
2022/03/21 03:52:48;;;;;;;;;;;;;;;16.27;40.87;103047.78;5107472;28;19908;-57
2022/03/21 03:55:14;;;;;;;;;;;;;;;16.26;40.89;103048.72;5106565;28;20037;-57
2022/03/21 03:57:40;;;;;;;;;;;;;;;16.26;40.95;103048.72;5106946;28;20008;-57
2022/03/21 04:00:06;;;;;;;;;;;;;;;16.25;40.91;103049.69;5106837;28;20574;-58
2022/03/21 04:03:44;;;;;;;;;;;;;;;16.25;40.84;103041.63;5106287;28;19915;-58
2022/03/21 04:05:16;;;;;;;;;;;;;;;16.24;40.87;103050.66;5106761;28;19943;-58
2022/03/21 04:07:41;;;;;;;;;;;;;;;16.23;40.95;103046.25;5106827;28;19920;-58
2022/03/21 04:10:06;;;;;;;;;;;;;;;16.23;40.76;103051.63;5106167;28;19922;-58
2022/03/21 04:12:32;;;;;;;;;;;;;;;16.22;40.85;103044.50;5106659;28;19908;-59
2022/03/21 04:14:57;;;;;;;;;;;;;;;16.21;40.96;103046.31;5106658;28;19919;-58
2022/03/21 04:17:22;;;;;;;;;;;;;;;16.21;40.79;103045.47;5104666;28;19908;-58
2022/03/21 04:19:47;;;;;;;;;;;;;;;16.21;40.89;103043.66;5118458;28;19918;-58
2022/03/21 04:22:12;;;;;;;;;;;;;;;16.21;40.82;103043.66;5126862;28;19994;-59
2022/03/21 04:24:38;;;;;;;;;;;;;;;16.21;40.84;103049.00;5126229;28;19908;-57
2022/03/21 04:27:03;;;;;;;;;;;;;;;16.22;40.88;103050.72;5126896;28;19922;-59
2022/03/21 04:29:29;;;;;;;;;;;;;;;16.22;40.85;103048.03;5126939;28;19947;-58
2022/03/21 04:31:54;;;;;;;;;;;;;;;16.22;40.89;103049.88;5126182;28;19908;-58
2022/03/21 04:34:19;;;;;;;;;;;;;;;16.23;40.82;103047.09;5126772;28;19908;-57
2022/03/21 04:36:44;;;;;;;;;;;;;;;16.24;40.77;103043.47;5125436;28;20292;-58
2022/03/21 04:39:10;;;;;;;;;;;;;;;16.23;40.70;103044.44;5108127;28;19918;-58
2022/03/21 04:41:35;;;;;;;;;;;;;;;16.26;40.86;103046.03;5125537;28;19914;-56
2022/03/21 04:44:00;;;;;;;;;;;;;;;16.27;40.68;103047.78;5107406;28;19937;-57
2022/03/21 04:46:25;;;;;;;;;;;;;;;16.27;40.56;103045.09;5126376;28;19915;-58
2022/03/21 04:48:50;;;;;;;;;;;;;;;16.29;40.56;103045.84;5125869;28;19911;-58
2022/03/21 04:51:15;;;;;;;;;;;;;;;16.31;40.64;103048.41;5126152;28;19975;-57
2022/03/21 04:53:41;;;;;;;;;;;;;;;16.31;40.61;103054.69;5126387;28;19919;-58
2022/03/21 04:56:07;;;;;;;;;;;;;;;16.25;40.53;103041.63;5125464;28;19974;-58
2022/03/21 04:58:32;;;;;;;;;;;;;;;16.34;40.46;103054.44;5126237;28;19961;-58
2022/03/21 05:00:57;;;;;;;;;;;;;;;16.35;40.49;103052.63;5125949;28;19957;-57
2022/03/21 05:03:22;;;;;;;;;;;;;;;16.37;40.38;103056.09;5125574;28;19908;-58
2022/03/21 05:05:47;;;;;;;;;;;;;;;16.38;40.43;103057.81;5107352;28;19916;-59
2022/03/21 05:08:12;;;;;;;;;;;;;;;16.39;40.43;103065.75;5125532;28;19912;-56
2022/03/21 05:10:38;;;;;;;;;;;;;;;16.41;40.32;103065.66;5125551;28;19907;-57
2022/03/21 05:13:03;;;;;;;;;;;;;;;16.43;40.26;103078.00;5125828;28;19960;-58
2022/03/21 05:15:28;;;;;;;;;;;;;;;16.44;40.08;103074.38;5126239;28;19908;-57
2022/03/21 05:17:54;;;;;;;;;;;;;;;16.45;40.21;103076.09;5125356;28;19955;-56
2022/03/21 05:20:19;;;;;;;;;;;;;;;16.47;39.97;103068.78;5125626;28;20077;-57
2022/03/21 05:30:57;;;;;;;;;;;;;;;16.48;40.03;103065.19;5125666;28;19915;-58
2022/03/21 05:30:59;;;;;;;;;;;;;;;16.54;39.90;103076.47;5125473;28;19997;-55
2022/03/21 05:36:08;;;;;;;;;;;;;;;16.58;39.99;103078.00;5125124;28;19914;-58
2022/03/21 05:38:33;;;;;;;;;;;;;;;16.60;40.09;103087.66;5109921;27;19912;-57
2022/03/21 05:41:03;;;;;;;;;;;;;;;16.61;40.09;103078.66;5104305;28;19919;-58
2022/03/21 05:43:29;;;;;;;;;;;;;;;16.63;40.03;103084.78;5111443;28;19912;-57
2022/03/21 05:45:54;;;;;;;;;;;;;;;16.66;40.08;103089.09;5117926;28;20002;-57
2022/03/21 05:51:03;;;;;;;;;;;;;;;16.71;39.99;103078.91;5124219;28;20402;-57
2022/03/21 05:53:29;;;;;;;;;;;;;;;16.73;39.97;103087.75;5124846;28;19986;-57
2022/03/21 05:55:55;;;;;;;;;;;;;;;16.76;40.07;103087.56;5123315;28;19908;-58
2022/03/21 05:58:20;;;;;;;;;;;;;;;16.79;40.00;103081.13;5120210;28;19922;-56
2022/03/21 06:00:45;;;;;;;;;;;;;;;16.81;40.05;103079.19;5104012;28;20347;-56
2022/03/21 06:03:11;;;;;;;;;;;;;;;16.78;39.99;103072.22;5103877;28;19930;-57
2022/03/21 06:05:36;;;;;;;;;;;;;;;16.85;40.06;103078.88;5104100;28;19919;-58
2022/03/21 06:08:01;;;;;;;;;;;;;;;16.88;39.89;103089.44;5110243;28;19923;-57
2022/03/21 06:10:26;;;;;;;;;;;;;;;16.90;39.89;103090.16;5123643;28;20459;-57
2022/03/21 06:12:51;;;;;;;;;;;;;;;16.92;40.12;103090.09;5124366;28;19907;-57
2022/03/21 06:15:17;;;;;;;;;;;;;;;16.95;39.86;103087.19;5122533;28;19911;-56
2022/03/21 06:17:43;;;;;;;;;;;;;;;16.97;39.72;103093.31;5121169;28;19917;-56
2022/03/21 06:20:08;;;;;;;;;;;;;;;16.98;39.82;103095.91;5124194;28;19929;-56
2022/03/21 06:22:34;;;;;;;;;;;;;;;17.01;39.72;103107.41;5113634;28;19919;-56
2022/03/21 06:24:59;;;;;;;;;;;;;;;17.02;39.96;103099.25;5106166;28;19916;-57
2022/03/21 06:27:24;;;;;;;;;;;;;;;17.04;39.94;103097.34;5109418;28;19912;-57
2022/03/21 06:29:49;;;;;;;;;;;;;;;17.07;39.81;103107.00;5104124;28;19912;-57
2022/03/21 06:32:14;;;;;;;;;;;;;;;17.08;39.73;103100.69;5103554;28;20302;-57
2022/03/21 06:34:40;;;;;;;;;;;;;;;17.11;39.60;103100.44;5116021;28;19915;-56
2022/03/21 06:37:05;;;;;;;;;;;;;;;17.12;39.69;103103.06;5124028;28;19967;-57
2022/03/21 06:39:30;;;;;;;;;;;;;;;17.15;39.63;103110.03;5123932;28;19907;-57
2022/03/21 06:41:55;;;;;;;;;;;;;;;17.18;39.54;103120.59;5123131;28;20296;-57
2022/03/21 06:44:21;;;;;;;;;;;;;;;17.20;39.59;103118.63;5121128;28;19940;-57
2022/03/21 06:46:46;;;;;;;;;;;;;;;17.22;39.53;103124.78;5110692;28;19923;-57
2022/03/21 06:49:11;;;;;;;;;;;;;;;17.23;39.61;103121.13;5105950;28;19908;-55
2022/03/21 06:51:36;;;;;;;;;;;;;;;17.24;39.64;103118.31;5123589;28;20007;-55
2022/03/21 06:54:02;;;;;;;;;;;;;;;17.26;39.58;103129.00;5120586;28;19912;-54
2022/03/21 06:56:27;;;;;;;;;;;;;;;17.29;39.41;103125.22;5103408;28;19908;-56
2022/03/21 06:58:53;;;;;;;;;;;;;;;17.31;39.44;103131.38;5103938;28;19911;-57
2022/03/21 07:01:18;;;;;;;;;;;;;;;17.33;39.33;103124.03;5103737;28;20396;-58
2022/03/21 07:03:43;;;;;;;;;;;;;;;17.34;39.52;103128.47;5103576;28;19909;-57
2022/03/21 07:06:08;;;;;;;;;;;;;;;17.35;39.35;103133.75;5103986;28;19933;-54
2022/03/21 07:08:33;;;;;;;;;;;;;;;17.36;39.20;103127.41;5112646;28;19915;-54
2022/03/21 07:10:59;;;;;;;;;;;;;;;17.38;39.15;103136.22;5125697;28;19985;-58
2022/03/21 07:13:27;;;;;;;;;;;;;;;17.40;39.18;103139.66;5127932;28;20445;-58
2022/03/21 07:15:52;;;;;;;;;;;;;;;17.42;39.08;103139.59;5127798;28;19908;-58
2022/03/21 07:18:17;;;;;;;;;;;;;;;17.43;38.99;103141.28;5127698;28;19912;-57
2022/03/21 07:20:43;;;;;;;;;;;;;;;17.44;38.96;103143.00;5123357;28;20301;-56
2022/03/21 07:23:08;;;;;;;;;;;;;;;17.45;38.91;103144.72;5124677;28;19919;-57
2022/03/21 07:25:33;;;;;;;;;;;;;;;17.45;38.84;103148.28;5126093;28;19943;-53
2022/03/21 07:27:58;;;;;;;;;;;;;;;17.47;38.93;103151.75;5127984;28;19916;-53
2022/03/21 07:30:24;;;;;;;;;;;;;;;17.49;38.89;103144.41;5127573;28;19950;-51
2022/03/21 07:32:49;;;;;;;;;;;;;;;17.51;38.76;103149.72;5126909;27;19912;-50
2022/03/21 07:35:14;;;;;;;;;;;;;;;17.53;38.68;103153.13;5127330;28;19907;-50
2022/03/21 07:37:43;;;;;;;;;;;;;;;17.55;38.78;103153.91;5127471;28;19911;-51
2022/03/21 07:40:10;;;;;;;;;;;;;;;17.58;38.72;103151.00;5126979;28;19907;-52
2022/03/21 07:42:35;;;;;;;;;;;;;;;17.58;38.66;103155.50;5127708;28;19908;-53
2022/03/21 07:47:44;;;;;;;;;;;;;;;17.60;38.49;103151.75;5126956;28;19933;-52
2022/03/21 07:50:10;;;;;;;;;;;;;;;17.62;38.44;103146.25;5127556;28;19971;-51
2022/03/21 07:52:35;;;;;;;;;;;;;;;17.63;38.23;103156.94;5127607;28;19911;-57
2022/03/21 07:55:01;;;;;;;;;;;;;;;17.65;38.46;103151.44;5127002;28;19912;-50
2022/03/21 07:57:28;;;;;;;;;;;;;;;17.67;38.44;103158.44;5127446;28;19908;-52
2022/03/21 07:59:54;;;;;;;;;;;;;;;17.69;38.38;103158.34;5108989;28;19915;-53
2022/03/21 08:02:19;;;;;;;;;;;;;;;17.71;38.51;103165.34;5126145;28;19960;-51
2022/03/21 08:04:46;;;;;;;;;;;;;;;17.74;38.50;103157.06;5127043;28;20392;-53
2022/03/21 08:07:12;;;;;;;;;;;;;;;17.76;38.15;103165.06;5126790;28;19922;-49
2022/03/21 08:09:37;;;;;;;;;;;;;;;17.80;38.22;103165.69;5126680;28;19947;-53
2022/03/21 08:12:02;;;;;;;;;;;;;;;17.81;38.46;103157.53;5125441;28;19937;-55
2022/03/21 08:14:27;;;;;;;;;;;;;;;17.82;38.38;103159.25;5127302;28;19914;-54
2022/03/21 08:16:53;;;;;;;;;;;;;;;17.85;38.37;103167.09;5126722;27;19907;-56
2022/03/21 08:19:18;;;;;;;;;;;;;;;17.88;38.34;103161.53;5126307;28;20007;-57
2022/03/21 08:21:43;;;;;;;;;;;;;;;17.89;38.20;103165.94;5126685;28;19994;-55
2022/03/21 08:24:11;;;;;;;;;;;;;;;17.93;38.36;103169.28;5126736;27;19916;-55
2022/03/21 08:26:37;;;;;;;;;;;;;;;17.95;38.32;103170.00;5119269;28;20484;-52
2022/03/21 08:29:02;;;;;;;;;;;;;;;17.98;38.17;103169.81;5120092;28;19923;-49
2022/03/21 08:31:28;;;;;;;;;;;;;;;18.01;38.25;103168.69;5126268;28;19908;-53
2022/03/21 08:33:53;;;;;;;;;;;;;;;18.02;38.05;103167.75;5125690;28;19977;-54
2022/03/21 08:36:18;;;;;;;;;;;;;;;17.97;38.27;103168.09;5126466;27;19918;-50
2022/03/21 08:38:43;;;;;;;;;;;;;;;18.08;38.16;103178.09;5126007;28;19908;-55
2022/03/21 08:41:08;;;;;;;;;;;;;;;18.09;37.96;103169.88;5126155;28;19964;-56
2022/03/21 08:43:34;;;;;;;;;;;;;;;18.13;38.06;103173.22;5126379;28;19915;-57
2022/03/21 08:45:59;;;;;;;;;;;;;;;18.15;37.96;103174.84;5126420;27;19908;-57
2022/03/21 08:49:23;;;;;;;;;;;;;;;18.18;38.11;103165.69;5125925;28;19964;-58
2022/03/21 08:51:09;;;;;;;;;;;;;;;18.22;38.09;103169.88;5126030;28;19907;-58
2022/03/21 08:53:34;;;;;;;;;;;;;;;18.26;38.01;103173.22;5126332;28;19956;-58
2022/03/21 08:55:59;;;;;;;;;;;;;;;18.28;37.98;103166.75;5125681;28;19911;-57
2022/03/21 08:58:25;;;;;;;;;;;;;;;18.33;37.78;103166.44;5126107;28;19907;-57
2022/03/21 09:00:50;;;;;;;;;;;;;;;18.35;37.77;103162.66;5114721;28;19918;-57
2022/03/21 09:03:15;;;;;;;;;;;;;;;18.38;37.75;103173.19;5115408;28;19918;-58
2022/03/21 09:05:40;;;;;;;;;;;;;;;18.42;37.90;103166.63;5124634;28;20415;-57
2022/03/21 09:08:08;;;;;;;;;;;;;;;18.45;37.94;103162.88;5125507;28;19955;-57
2022/03/21 09:10:34;;;;;;;;;;;;;;;18.47;37.73;103159.06;5124182;28;19939;-57
2022/03/21 09:12:59;;;;;;;;;;;;;;;18.50;37.89;103171.47;5125898;28;19908;-57
2022/03/21 09:15:25;;;;;;;;;;;;;;;18.52;38.07;103161.47;5125720;28;19947;-57
2022/03/21 09:17:50;;;;;;;;;;;;;;;18.54;37.79;103166.72;5125544;28;19912;-58
2022/03/21 09:20:16;;;;;;;;;;;;;;;18.55;37.90;103155.81;5125502;28;19915;-57
2022/03/21 09:22:41;;;;;;;;;;;;;;;18.57;37.59;103153.03;5125747;28;19920;-58
2022/03/21 09:25:07;;;;;;;;;;;;;;;18.59;37.69;103151.94;5125034;28;19907;-56
2022/03/21 09:27:32;;;;;;;;;;;;;;;18.61;37.78;103154.53;5125499;28;19923;-56
2022/03/21 09:29:57;;;;;;;;;;;;;;;18.63;37.74;103156.13;5125583;28;19907;-58
2022/03/21 09:32:22;;;;;;;;;;;;;;;18.65;37.74;103154.19;5106659;28;19908;-55
2022/03/21 09:34:48;;;;;;;;;;;;;;;18.67;37.62;103156.75;5125233;28;19908;-57
2022/03/21 09:37:13;;;;;;;;;;;;;;;18.69;37.61;103153.03;5125791;28;19912;-56
2022/03/21 09:39:39;;;;;;;;;;;;;;;18.71;37.66;103143.00;5124698;28;20364;-55
2022/03/21 09:42:04;;;;;;;;;;;;;;;18.72;37.54;103151.94;5123687;28;19937;-57
2022/03/21 09:44:30;;;;;;;;;;;;;;;18.75;37.42;103149.00;5125099;28;19911;-58
2022/03/21 09:46:55;;;;;;;;;;;;;;;18.77;37.39;103144.34;5124924;28;20380;-57
2022/03/21 09:49:20;;;;;;;;;;;;;;;18.79;37.40;103141.56;5125212;28;20379;-58
2022/03/21 09:51:46;;;;;;;;;;;;;;;18.81;37.34;103139.59;5123776;28;19908;-57
2022/03/21 09:54:11;;;;;;;;;;;;;;;18.82;37.21;103144.91;5125299;28;19915;-57
2022/03/21 09:56:36;;;;;;;;;;;;;;;18.85;37.19;103143.78;5122970;28;19918;-58
2022/03/21 09:59:01;;;;;;;;;;;;;;;18.85;37.06;103141.97;5125049;28;20371;-57
2022/03/21 10:01:28;;;;;;;;;;;;;;;18.86;37.14;103140.13;5124753;28;19908;-57
2022/03/21 10:03:53;;;;;;;;;;;;;;;18.86;37.24;103141.00;5124639;28;19997;-58
2022/03/21 10:06:29;;;;;;;;;;;;;;;18.87;37.11;103125.69;5124946;28;19920;-57
2022/03/21 10:09:06;;;;;;;;;;;;;;;18.87;37.12;103129.25;5124731;28;19907;-58
2022/03/21 10:11:32;;;;;;;;;;;;;;;18.88;37.06;103136.34;5124367;28;20013;-57
2022/03/21 10:13:57;;;;;;;;;;;;;;;18.88;37.14;103127.41;5124801;28;19915;-58
2022/03/21 10:16:22;;;;;;;;;;;;;;;18.89;37.10;103127.28;5124262;28;20018;-57
2022/03/21 10:18:54;;;;;;;;;;;;;;;18.90;37.18;103122.75;5124290;28;20368;-58
2022/03/21 10:21:20;;;;;;;;;;;;;;;18.91;36.92;103127.19;5124637;28;19923;-57
2022/03/21 10:23:46;;;;;;;;;;;;;;;18.92;37.25;103131.59;5124439;28;19922;-57
2022/03/21 10:26:28;;;;;;;;;;;;;;;18.92;37.00;103121.66;5122509;28;19908;-57
2022/03/21 10:28:54;;;;;;;;;;;;;;;18.94;37.08;103118.84;5106350;28;19922;-58
2022/03/21 10:31:39;;;;;;;;;;;;;;;18.96;37.04;103117.75;5123199;28;19963;-57
2022/03/21 10:34:10;;;;;;;;;;;;;;;18.97;36.97;103118.63;5124011;28;20002;-57
2022/03/21 10:36:38;;;;;;;;;;;;;;;18.97;36.94;103118.63;5124527;28;19908;-57
2022/03/21 10:39:07;;;;;;;;;;;;;;;18.98;36.94;103121.19;5122831;28;19919;-57
2022/03/21 10:41:33;;;;;;;;;;;;;;;19.00;37.12;103122.94;5123332;28;19918;-57
2022/03/21 10:43:58;;;;;;;;;;;;;;;19.03;36.81;103130.78;5124497;28;19907;-58
2022/03/21 10:46:24;;;;;;;;;;;;;;;19.03;37.10;103123.56;5122606;28;20272;-58
2022/03/21 10:48:59;;;;;;;;;;;;;;;19.06;37.24;103125.16;5112797;28;19916;-55
2022/03/21 10:51:24;;;;;;;;;;;;;;;19.08;36.98;103123.22;5103906;28;19916;-54
2022/03/21 10:53:50;;;;;;;;;;;;;;;19.10;36.94;103130.19;5103979;28;20004;-55
2022/03/21 10:56:15;;;;;;;;;;;;;;;19.12;36.96;103124.72;5103359;28;19935;-53
2022/03/21 10:58:41;;;;;;;;;;;;;;;19.13;37.00;103124.56;5103985;28;19969;-54
2022/03/21 11:01:20;;;;;;;;;;;;;;;19.16;37.08;103126.19;5109882;28;20348;-51
2022/03/21 11:03:49;;;;;;;;;;;;;;;19.17;37.17;103128.75;5106590;28;19919;-55
2022/03/21 11:06:14;;;;;;;;;;;;;;;19.20;37.60;103125.00;5103725;28;20262;-55
2022/03/21 11:08:39;;;;;;;;;;;;;;;19.25;37.67;103127.34;5105531;28;20505;-56
2022/03/21 11:11:04;;;;;;;;;;;;;;;19.28;38.02;103124.38;5122786;28;20319;-56
2022/03/21 11:13:30;;;;;;;;;;;;;;;19.31;38.13;103124.16;5122763;28;19915;-55
2022/03/21 11:15:56;;;;;;;;;;;;;;;19.34;38.02;103121.22;5123782;28;19907;-54
2022/03/21 11:18:21;;;;;;;;;;;;;;;19.37;38.12;103126.38;5122500;28;19919;-55
2022/03/21 11:20:47;;;;;;;;;;;;;;;19.39;38.15;103124.44;5123910;28;19908;-55
2022/03/21 11:23:15;;;;;;;;;;;;;;;19.41;38.36;103123.34;5123502;28;19922;-56
2022/03/21 11:25:40;;;;;;;;;;;;;;;19.44;38.31;103120.38;5122785;28;19908;-54
2022/03/21 11:28:23;;;;;;;;;;;;;;;19.47;38.46;103122.84;5102572;28;19916;-51
2022/03/21 11:31:07;;;;;;;;;;;;;;;19.49;38.37;103115.50;5121919;28;19908;-53
2022/03/21 11:33:32;;;;;;;;;;;;;;;19.53;38.56;103118.81;5123186;28;19908;-54
2022/03/21 11:36:01;;;;;;;;;;;;;;;19.54;38.52;103117.84;5123940;28;19915;-54
2022/03/21 11:38:27;;;;;;;;;;;;;;;19.57;38.67;103120.28;5123857;28;19915;-55
2022/03/21 11:41:10;;;;;;;;;;;;;;;19.59;38.39;103117.50;5122936;28;19916;-55
2022/03/21 11:43:35;;;;;;;;;;;;;;;19.61;38.44;103120.94;5110778;28;19912;-54
2022/03/21 11:46:18;;;;;;;;;;;;;;;19.63;38.48;103119.88;5103398;28;19962;-54
2022/03/21 11:48:43;;;;;;;;;;;;;;;19.65;38.61;103112.50;5101940;28;19912;-54
2022/03/21 11:51:18;;;;;;;;;;;;;;;19.67;38.46;103115.09;5104079;28;20315;-55
2022/03/21 11:53:53;;;;;;;;;;;;;;;19.70;38.39;103114.84;5124430;28;19956;-54
2022/03/21 11:56:37;;;;;;;;;;;;;;;19.72;38.66;103116.44;5126313;28;19917;-52
2022/03/21 11:59:03;;;;;;;;;;;;;;;19.75;38.53;103104.53;5107038;28;19912;-57
2022/03/21 12:01:28;;;;;;;;;;;;;;;19.78;38.38;103100.75;5106827;28;19908;-55
2022/03/21 12:03:54;;;;;;;;;;;;;;;19.79;38.63;103106.00;5106584;28;19939;-57
2022/03/21 12:06:19;;;;;;;;;;;;;;;19.81;38.66;103098.66;5106765;28;20069;-56
2022/03/21 12:08:48;;;;;;;;;;;;;;;19.83;38.62;103101.22;5106731;28;19908;-55
2022/03/21 12:11:33;;;;;;;;;;;;;;;19.84;38.66;103106.53;5117345;28;20010;-52
2022/03/21 12:14:25;;;;;;;;;;;;;;;19.84;38.64;103093.03;5126370;28;19930;-54
2022/03/21 12:17:02;;;;;;;;;;;;;;;19.87;38.70;103089.19;5123656;28;19972;-55
2022/03/21 12:19:54;;;;;;;;;;;;;;;19.88;38.49;103086.41;5115614;28;19933;-55
2022/03/21 12:22:35;;;;;;;;;;;;;;;19.91;38.80;103093.38;5119095;28;19916;-49
2022/03/21 12:25:01;;;;;;;;;;;;;;;19.91;38.80;103083.44;5125876;28;20255;-55
2022/03/21 12:27:29;;;;;;;;;;;;;;;19.93;38.87;103078.78;5126333;28;19911;-55
2022/03/21 12:30:12;;;;;;;;;;;;;;;19.95;39.04;103081.34;5126147;27;19914;-56
2022/03/21 12:32:46;;;;;;;;;;;;;;;19.97;38.98;103082.97;5115369;28;20007;-56
2022/03/21 12:35:27;;;;;;;;;;;;;;;20.00;38.83;103075.59;5105991;28;19958;-56
2022/03/21 12:37:52;;;;;;;;;;;;;;;20.02;38.83;103066.38;5123937;28;19915;-56
2022/03/21 12:40:17;;;;;;;;;;;;;;;20.04;38.84;103068.94;5125047;28;19972;-56
2022/03/21 12:42:45;;;;;;;;;;;;;;;20.07;39.11;103074.13;5119032;28;20472;-58
2022/03/21 12:45:15;;;;;;;;;;;;;;;20.09;38.99;103064.91;5120117;28;19907;-58
2022/03/21 12:47:40;;;;;;;;;;;;;;;20.12;39.00;103069.19;5107659;28;20503;-57
2022/03/21 12:50:06;;;;;;;;;;;;;;;20.13;39.17;103062.81;5105992;28;19909;-55